Time;durP1;ratioP1;P1;durP2;ratioP2;P2;SDS_P1;SDS_P2;PMS_P1;PMS_P2;Temp;Humidity;BMP_temperature;BMP_pressure;BME280_temperature;BME280_humidity;BME280_pressure;Samples;Min_cycle;Max_cycle;Signal;HPM_P1;HPM_P2
2022/10/05 00:00:44;;;;;;;12.10;7.87;;;15.40;99.90;;;;;;5057219;28;20195;-61
2022/10/05 00:03:13;;;;;;;12.70;8.00;;;15.50;99.90;;;;;;5059533;28;20193;-61
2022/10/05 00:05:43;;;;;;;10.50;8.20;;;15.40;99.90;;;;;;5059447;28;20555;-61
2022/10/05 00:08:15;;;;;;;11.17;7.73;;;15.40;99.90;;;;;;5059155;28;20201;-61
2022/10/05 00:10:44;;;;;;;15.07;8.53;;;15.40;99.90;;;;;;5061132;28;20199;-61
2022/10/05 00:13:16;;;;;;;10.83;8.37;;;15.40;99.90;;;;;;5054073;28;20193;-61
2022/10/05 00:15:45;;;;;;;11.53;8.83;;;15.40;99.90;;;;;;5071646;28;20244;-61
2022/10/05 00:18:15;;;;;;;12.53;9.20;;;15.40;99.90;;;;;;5057663;28;20196;-61
2022/10/05 00:20:45;;;;;;;12.37;8.60;;;15.40;99.90;;;;;;5059454;28;20644;-61
2022/10/05 00:23:18;;;;;;;15.07;9.17;;;15.40;99.90;;;;;;5055831;28;20219;-61
2022/10/05 00:25:46;;;;;;;11.03;8.37;;;15.30;99.90;;;;;;5054388;28;20593;-61
2022/10/05 00:28:20;;;;;;;13.77;8.57;;;15.30;99.90;;;;;;5062041;28;20227;-61
2022/10/05 00:30:49;;;;;;;13.03;8.87;;;15.30;99.90;;;;;;5056411;28;20276;-61
2022/10/05 00:33:17;;;;;;;15.63;9.23;;;15.30;99.90;;;;;;5063746;28;20188;-61
2022/10/05 00:35:46;;;;;;;19.07;9.67;;;15.30;99.90;;;;;;5060368;28;20846;-61
2022/10/05 00:38:14;;;;;;;13.73;9.03;;;15.40;99.90;;;;;;5057964;28;20197;-61
2022/10/05 00:40:56;;;;;;;12.23;9.60;;;15.30;99.90;;;;;;5059267;28;20196;-61
2022/10/05 00:43:44;;;;;;;16.43;9.70;;;15.30;99.90;;;;;;5088834;28;20201;-61
2022/10/05 00:46:18;;;;;;;17.83;9.97;;;15.30;99.90;;;;;;5063018;28;20205;-61
2022/10/05 00:48:59;;;;;;;17.53;10.37;;;15.30;99.90;;;;;;5060448;28;20300;-61
2022/10/05 00:51:30;;;;;;;10.77;8.87;;;15.30;99.90;;;;;;5056955;28;20725;-61
2022/10/05 00:54:12;;;;;;;13.07;9.10;;;15.30;99.90;;;;;;5051404;28;20197;-61
2022/10/05 00:57:08;;;;;;;14.27;9.90;;;15.20;99.90;;;;;;5062181;28;20294;-61
2022/10/05 00:59:54;;;;;;;13.33;8.97;;;15.20;99.90;;;;;;5056020;28;20219;-61
2022/10/05 01:02:29;;;;;;;11.90;8.67;;;15.30;99.90;;;;;;5056876;28;20185;-62
2022/10/05 01:05:09;;;;;;;14.37;8.77;;;15.30;99.90;;;;;;5062255;28;20195;-61
2022/10/05 01:07:46;;;;;;;13.03;8.67;;;15.30;99.90;;;;;;5057266;28;20211;-61
2022/10/05 01:10:22;;;;;;;15.63;8.40;;;15.30;99.90;;;;;;5060226;28;20196;-61
2022/10/05 01:13:00;;;;;;;15.33;8.70;;;15.30;99.90;;;;;;5059357;28;20594;-61
2022/10/05 01:15:34;;;;;;;11.90;8.60;;;15.20;99.90;;;;;;5062355;28;20183;-61
2022/10/05 01:18:10;;;;;;;11.60;8.57;;;15.30;99.90;;;;;;5057187;28;20204;-61
2022/10/05 01:20:49;;;;;;;9.27;7.73;;;15.30;99.90;;;;;;5059939;28;20188;-61
2022/10/05 01:24:03;;;;;;;10.60;7.30;;;15.30;99.90;;;;;;5060107;28;20583;-61
2022/10/05 01:26:47;;;;;;;9.03;7.47;;;15.30;99.90;;;;;;5045148;28;20212;-61
2022/10/05 01:29:22;;;;;;;8.40;7.57;;;15.30;99.90;;;;;;5057462;28;20235;-61
2022/10/05 01:31:59;;;;;;;11.77;7.67;;;15.30;99.90;;;;;;5061757;28;20189;-61
2022/10/05 01:34:38;;;;;;;8.77;7.00;;;15.30;99.90;;;;;;5059924;28;20199;-61
2022/10/05 01:37:16;;;;;;;10.17;7.20;;;15.30;99.90;;;;;;5066236;28;20196;-61
2022/10/05 01:39:51;;;;;;;10.40;7.40;;;15.30;99.90;;;;;;5057574;28;20764;-61
2022/10/05 01:42:27;;;;;;;11.00;6.70;;;15.20;99.90;;;;;;5062641;28;20193;-61
2022/10/05 01:45:05;;;;;;;8.30;7.10;;;15.30;99.90;;;;;;5062814;28;20282;-61
2022/10/05 01:47:42;;;;;;;11.70;7.23;;;15.20;99.90;;;;;;5096701;28;20593;-61
2022/10/05 01:50:17;;;;;;;9.53;7.30;;;15.20;99.90;;;;;;5096754;28;20215;-61
2022/10/05 01:52:56;;;;;;;8.93;7.70;;;15.20;99.90;;;;;;5063987;28;20200;-61
2022/10/05 01:55:32;;;;;;;9.43;7.40;;;15.20;99.90;;;;;;5063065;28;20970;-61
2022/10/05 01:58:14;;;;;;;12.97;7.00;;;15.10;99.90;;;;;;5064003;28;20658;-61
2022/10/05 02:00:52;;;;;;;11.17;7.47;;;15.20;99.90;;;;;;5062268;28;20197;-61
2022/10/05 02:03:25;;;;;;;8.47;6.77;;;15.20;99.90;;;;;;5062997;28;20200;-61
2022/10/05 02:05:58;;;;;;;8.97;6.50;;;15.10;99.90;;;;;;5067768;28;20920;-61
2022/10/05 02:08:36;;;;;;;11.80;7.63;;;15.20;99.90;;;;;;5066357;28;20652;-61
2022/10/05 02:11:08;;;;;;;10.67;6.93;;;15.10;99.90;;;;;;5055019;28;20278;-61
2022/10/05 02:13:40;;;;;;;7.87;6.97;;;15.10;99.90;;;;;;5064472;28;20972;-61
2022/10/05 02:16:16;;;;;;;9.27;6.93;;;15.20;99.90;;;;;;5066185;28;20291;-61
2022/10/05 02:18:50;;;;;;;7.63;6.50;;;15.20;99.90;;;;;;5061908;28;20184;-61
2022/10/05 02:21:21;;;;;;;8.97;6.57;;;15.20;99.90;;;;;;5065989;28;20206;-61
2022/10/05 02:23:54;;;;;;;6.97;6.33;;;15.20;99.90;;;;;;5063854;28;20747;-61
2022/10/05 02:26:24;;;;;;;9.70;6.70;;;15.10;99.90;;;;;;5063365;28;20703;-61
2022/10/05 02:28:56;;;;;;;10.90;7.00;;;15.20;99.90;;;;;;5060903;28;20618;-61
2022/10/05 02:31:30;;;;;;;7.40;6.57;;;15.20;99.90;;;;;;5064588;28;20208;-61
2022/10/05 02:34:23;;;;;;;8.93;6.60;;;15.20;99.90;;;;;;5064529;28;20198;-61
2022/10/05 02:37:03;;;;;;;6.87;6.17;;;15.20;99.90;;;;;;5063601;28;20660;-61
2022/10/05 02:39:40;;;;;;;9.20;6.80;;;15.10;99.90;;;;;;5060761;28;20205;-61
2022/10/05 02:42:14;;;;;;;7.73;6.70;;;15.10;99.90;;;;;;5064025;28;20201;-62
2022/10/05 02:44:52;;;;;;;10.83;6.40;;;15.10;99.90;;;;;;5061519;28;20835;-61
2022/10/05 02:47:29;;;;;;;7.37;5.87;;;15.20;99.90;;;;;;5068243;28;20204;-61
2022/10/05 02:50:03;;;;;;;7.23;6.27;;;15.20;99.90;;;;;;5059376;28;20213;-61
2022/10/05 02:52:43;;;;;;;6.60;5.93;;;15.20;99.90;;;;;;5064162;28;20187;-61
2022/10/05 02:55:18;;;;;;;6.23;5.60;;;15.20;99.90;;;;;;5059836;28;20702;-61
2022/10/05 02:57:53;;;;;;;5.73;5.17;;;15.20;99.90;;;;;;5065028;28;20560;-61
2022/10/05 03:00:23;;;;;;;6.80;5.50;;;15.20;99.90;;;;;;5058659;28;20908;-61
2022/10/05 03:03:04;;;;;;;5.73;5.20;;;15.10;99.90;;;;;;5059793;28;20209;-61
2022/10/05 03:05:40;;;;;;;9.10;5.40;;;15.10;99.90;;;;;;5065491;28;20820;-61
2022/10/05 03:08:17;;;;;;;9.93;5.73;;;15.10;99.90;;;;;;5059666;28;20211;-61
2022/10/05 03:10:50;;;;;;;7.53;5.43;;;15.10;99.90;;;;;;5055773;28;20231;-61
2022/10/05 03:13:26;;;;;;;6.60;5.80;;;15.10;99.90;;;;;;5092979;28;20200;-61
2022/10/05 03:16:35;;;;;;;6.23;5.10;;;15.10;99.90;;;;;;5062958;28;20193;-61
2022/10/05 03:19:17;;;;;;;8.07;5.30;;;15.10;99.90;;;;;;5053129;28;20239;-61
2022/10/05 03:21:59;;;;;;;5.67;5.07;;;15.10;99.90;;;;;;5045124;28;20199;-61
2022/10/05 03:24:42;;;;;;;9.17;5.07;;;15.10;99.90;;;;;;5056673;28;20196;-61
2022/10/05 03:27:24;;;;;;;4.40;3.93;;;15.10;99.90;;;;;;5062442;28;20196;-61
2022/10/05 03:30:02;;;;;;;7.33;4.90;;;15.10;99.90;;;;;;5058980;28;20216;-61
2022/10/05 03:32:38;;;;;;;4.83;4.43;;;15.20;99.90;;;;;;5063918;28;20210;-61
2022/10/05 03:35:13;;;;;;;5.00;4.50;;;15.10;99.90;;;;;;5063146;28;20228;-62
2022/10/05 03:37:51;;;;;;;6.80;4.80;;;15.20;99.90;;;;;;5064062;28;21240;-61
2022/10/05 03:40:26;;;;;;;4.93;4.53;;;15.10;99.90;;;;;;5061081;28;20196;-61
2022/10/05 03:43:05;;;;;;;5.87;5.10;;;15.10;99.90;;;;;;5064572;28;20192;-61
2022/10/05 03:45:42;;;;;;;6.30;4.80;;;15.00;99.90;;;;;;5061609;28;20221;-61
2022/10/05 03:48:14;;;;;;;6.30;4.83;;;15.10;99.90;;;;;;5061229;28;20615;-61
2022/10/05 03:50:55;;;;;;;6.37;5.00;;;15.10;99.90;;;;;;5061865;28;20211;-61
2022/10/05 03:53:27;;;;;;;5.20;4.70;;;15.10;99.90;;;;;;5062213;28;20207;-61
2022/10/05 03:56:03;;;;;;;5.97;5.27;;;15.10;99.90;;;;;;5063176;28;20206;-61
2022/10/05 03:58:38;;;;;;;5.83;4.77;;;15.10;99.90;;;;;;5056933;28;20810;-61
2022/10/05 04:01:11;;;;;;;5.57;5.07;;;15.10;99.90;;;;;;5058684;28;20204;-61
2022/10/05 04:03:45;;;;;;;5.00;4.70;;;15.00;99.90;;;;;;5060364;28;20913;-61
2022/10/05 04:06:20;;;;;;;8.93;5.37;;;15.00;99.90;;;;;;5068654;28;20223;-61
2022/10/05 04:08:55;;;;;;;6.93;5.30;;;15.00;99.90;;;;;;5069572;28;20203;-61
2022/10/05 04:11:29;;;;;;;7.83;5.30;;;14.90;99.90;;;;;;5064802;28;20199;-61
2022/10/05 04:14:04;;;;;;;5.87;5.27;;;14.90;99.90;;;;;;5064702;28;20274;-61
2022/10/05 04:16:36;;;;;;;7.83;5.00;;;14.90;99.90;;;;;;5062541;28;20195;-61
2022/10/05 04:19:14;;;;;;;5.53;5.00;;;14.90;99.90;;;;;;5061483;28;20193;-61
2022/10/05 04:21:51;;;;;;;7.07;5.37;;;14.90;99.90;;;;;;5075617;28;20192;-61
2022/10/05 04:24:24;;;;;;;6.80;5.10;;;15.00;99.90;;;;;;5062421;28;20590;-61
2022/10/05 04:26:56;;;;;;;5.33;4.83;;;14.90;99.90;;;;;;5059262;28;20710;-61
2022/10/05 04:29:32;;;;;;;4.63;4.33;;;15.00;99.90;;;;;;5060317;28;20550;-61
2022/10/05 04:32:28;;;;;;;5.73;4.60;;;15.00;99.90;;;;;;5058010;28;20206;-61
2022/10/05 04:35:06;;;;;;;5.57;4.40;;;14.90;99.90;;;;;;5090478;28;20245;-61
2022/10/05 04:37:47;;;;;;;4.80;4.33;;;14.90;99.90;;;;;;5056014;28;20212;-62
2022/10/05 04:40:26;;;;;;;5.20;4.43;;;14.90;99.90;;;;;;5060979;28;20199;-61
2022/10/05 04:43:08;;;;;;;5.00;4.33;;;14.90;99.90;;;;;;5066435;28;20558;-61
2022/10/05 04:46:02;;;;;;;4.77;4.37;;;14.90;99.90;;;;;;5061693;28;20205;-61
2022/10/05 04:49:04;;;;;;;6.10;4.17;;;14.90;99.90;;;;;;5051683;28;20229;-61
2022/10/05 04:51:40;;;;;;;4.90;4.10;;;14.90;99.90;;;;;;5096240;28;20933;-61
2022/10/05 04:54:22;;;;;;;5.17;4.60;;;14.90;99.90;;;;;;5061008;28;20618;-61
2022/10/05 04:56:58;;;;;;;7.20;4.10;;;14.90;99.90;;;;;;5056381;28;20208;-61
2022/10/05 04:59:50;;;;;;;4.63;4.13;;;14.90;99.90;;;;;;5061685;28;20218;-61
2022/10/05 05:02:31;;;;;;;4.63;4.33;;;14.90;99.90;;;;;;5060223;28;20192;-61
2022/10/05 05:05:18;;;;;;;4.67;4.27;;;14.90;99.90;;;;;;5062274;28;20207;-61
2022/10/05 05:07:53;;;;;;;3.73;3.53;;;14.90;99.90;;;;;;5060508;28;20643;-61
2022/10/05 05:10:53;;;;;;;3.73;3.43;;;15.00;99.90;;;;;;5062669;28;20214;-61
2022/10/05 05:14:06;;;;;;;8.30;3.73;;;14.90;99.90;;;;;;5065071;28;20200;-61
2022/10/05 05:16:38;;;;;;;3.97;3.60;;;15.00;99.90;;;;;;5056151;28;20690;-61
2022/10/05 05:19:28;;;;;;;6.17;3.87;;;14.90;99.90;;;;;;5079990;28;20193;-61
2022/10/05 05:22:02;;;;;;;5.53;4.10;;;14.90;99.90;;;;;;5072136;28;20200;-62
2022/10/05 05:24:45;;;;;;;5.63;3.30;;;15.00;99.90;;;;;;5066841;28;20192;-61
2022/10/05 05:27:41;;;;;;;4.27;3.90;;;15.10;99.90;;;;;;5065280;28;20273;-61
2022/10/05 05:30:20;;;;;;;4.20;3.90;;;15.10;99.90;;;;;;5070677;28;20761;-61
2022/10/05 05:33:00;;;;;;;4.50;4.10;;;15.20;99.90;;;;;;5064778;28;20206;-61
2022/10/05 05:35:53;;;;;;;3.83;3.43;;;15.20;99.90;;;;;;5057261;28;20339;-61
2022/10/05 05:38:30;;;;;;;5.97;3.40;;;15.20;99.90;;;;;;5064167;28;20690;-61
2022/10/05 05:41:10;;;;;;;3.53;3.33;;;15.20;99.90;;;;;;5070681;28;20199;-61
2022/10/05 05:43:58;;;;;;;4.77;3.60;;;15.20;99.90;;;;;;5071888;28;20197;-61
2022/10/05 05:46:30;;;;;;;3.83;3.63;;;15.20;99.90;;;;;;5066219;28;20271;-61
2022/10/05 05:49:24;;;;;;;4.90;3.63;;;15.20;99.90;;;;;;5070429;28;20235;-62
2022/10/05 05:51:59;;;;;;;4.20;3.90;;;15.20;99.90;;;;;;5073974;28;20619;-61
2022/10/05 05:54:32;;;;;;;4.17;3.87;;;15.20;99.90;;;;;;5070271;28;20214;-61
2022/10/05 05:57:09;;;;;;;4.57;3.63;;;15.20;99.90;;;;;;5068093;28;20201;-61
2022/10/05 05:59:53;;;;;;;4.03;3.60;;;15.20;99.90;;;;;;5069602;28;20211;-61
2022/10/05 06:02:27;;;;;;;4.00;3.70;;;15.20;99.90;;;;;;5071909;28;20212;-62
2022/10/05 06:05:02;;;;;;;3.90;3.70;;;15.30;99.90;;;;;;5073170;28;20201;-62
2022/10/05 06:07:31;;;;;;;3.80;3.50;;;15.20;99.90;;;;;;5071783;28;20228;-62
2022/10/05 06:10:05;;;;;;;3.93;3.63;;;15.30;99.90;;;;;;5065607;28;20246;-62
2022/10/05 06:12:38;;;;;;;3.70;3.43;;;15.40;99.90;;;;;;5061177;28;20194;-62
2022/10/05 06:15:22;;;;;;;4.07;3.50;;;15.30;99.90;;;;;;5076978;28;20196;-62
2022/10/05 06:17:54;;;;;;;3.67;3.47;;;15.30;99.90;;;;;;5075036;28;20662;-62
2022/10/05 06:20:28;;;;;;;3.90;3.60;;;15.30;99.90;;;;;;5072176;28;20674;-62
2022/10/05 06:23:01;;;;;;;3.80;3.50;;;15.30;99.90;;;;;;5066027;28;20604;-62
2022/10/05 06:25:39;;;;;;;4.00;3.80;;;15.40;99.90;;;;;;5065756;28;20205;-62
2022/10/05 06:28:10;;;;;;;4.10;3.80;;;15.30;99.90;;;;;;5070702;28;20198;-62
2022/10/05 06:30:50;;;;;;;5.10;3.47;;;15.40;99.90;;;;;;5079472;28;20212;-62
2022/10/05 06:33:33;;;;;;;4.93;3.90;;;15.40;99.90;;;;;;5069678;28;20215;-62
2022/10/05 06:36:14;;;;;;;4.27;3.90;;;15.40;99.90;;;;;;5074323;28;20189;-62
2022/10/05 06:39:13;;;;;;;4.63;3.90;;;15.40;99.90;;;;;;5064113;28;20196;-62
2022/10/05 06:41:56;;;;;;;8.13;4.17;;;15.50;99.90;;;;;;5059445;28;20204;-62
2022/10/05 06:44:29;;;;;;;4.17;3.87;;;15.50;99.90;;;;;;5096849;28;20207;-62
2022/10/05 06:47:07;;;;;;;6.67;4.00;;;15.50;99.90;;;;;;5067350;28;20189;-62
2022/10/05 06:49:46;;;;;;;6.13;4.10;;;15.60;99.90;;;;;;5080754;28;21122;-62
2022/10/05 06:52:25;;;;;;;4.40;3.90;;;15.60;99.90;;;;;;5088861;28;20237;-62
2022/10/05 06:55:11;;;;;;;4.40;4.20;;;15.60;99.90;;;;;;5076769;28;20279;-62
2022/10/05 06:57:57;;;;;;;4.57;4.17;;;15.60;99.90;;;;;;5074835;28;20258;-62
2022/10/05 07:00:31;;;;;;;5.10;4.60;;;15.60;99.90;;;;;;5078712;28;20197;-62
2022/10/05 07:03:12;;;;;;;4.17;3.87;;;15.60;99.90;;;;;;5076594;28;20202;-62
2022/10/05 07:05:56;;;;;;;4.73;4.33;;;15.60;99.90;;;;;;5073250;28;20231;-62
2022/10/05 07:08:35;;;;;;;4.67;4.27;;;15.70;99.90;;;;;;5094405;28;20189;-62
2022/10/05 07:11:12;;;;;;;4.43;4.03;;;15.60;99.90;;;;;;5065091;28;20240;-62
2022/10/05 07:14:10;;;;;;;8.37;4.43;;;15.70;99.90;;;;;;5064395;28;20200;-62
2022/10/05 07:16:48;;;;;;;5.13;4.30;;;15.60;99.90;;;;;;5071563;28;20220;-62
2022/10/05 07:19:31;;;;;;;5.33;4.80;;;15.70;99.90;;;;;;5066126;28;20216;-62
2022/10/05 07:22:22;;;;;;;6.90;4.43;;;15.70;99.90;;;;;;5074139;28;20205;-62
2022/10/05 07:25:01;;;;;;;4.83;4.43;;;15.70;99.90;;;;;;5078193;28;21852;-62
2022/10/05 07:27:33;;;;;;;5.43;4.43;;;15.80;99.90;;;;;;5079332;28;20307;-62
2022/10/05 07:30:09;;;;;;;5.03;4.60;;;15.80;99.90;;;;;;5069672;28;20232;-62
2022/10/05 07:32:49;;;;;;;4.90;4.43;;;15.80;99.90;;;;;;5065822;28;20542;-62
2022/10/05 07:38:24;;;;;;;7.83;4.63;;;15.80;99.90;;;;;;5069869;28;20208;-62
2022/10/05 07:40:59;;;;;;;5.43;4.73;;;15.90;99.90;;;;;;5072822;28;20188;-62
2022/10/05 07:43:37;;;;;;;4.63;4.07;;;15.90;99.90;;;;;;5053431;28;20202;-62
2022/10/05 07:46:32;;;;;;;5.20;4.67;;;15.80;99.90;;;;;;5074558;28;20200;-62
2022/10/05 07:49:06;;;;;;;6.23;4.50;;;15.90;99.90;;;;;;5069714;28;20200;-62
2022/10/05 07:51:40;;;;;;;4.43;3.97;;;15.90;99.90;;;;;;5069649;28;20200;-62
2022/10/05 07:54:18;;;;;;;4.30;3.90;;;16.00;99.90;;;;;;5068611;28;20250;-62
2022/10/05 07:56:54;;;;;;;7.90;4.37;;;16.00;99.90;;;;;;5071415;28;20205;-62
2022/10/05 07:59:30;;;;;;;4.13;3.70;;;16.00;99.90;;;;;;5072060;28;20665;-62
2022/10/05 08:02:07;;;;;;;4.23;3.93;;;16.10;99.90;;;;;;5071044;28;20193;-62
2022/10/05 08:04:46;;;;;;;5.50;4.07;;;16.10;99.90;;;;;;5075927;28;20231;-62
2022/10/05 08:07:17;;;;;;;4.27;3.93;;;16.20;99.90;;;;;;5071600;28;20727;-62
2022/10/05 08:09:52;;;;;;;4.00;3.70;;;16.10;99.90;;;;;;5069640;28;20229;-62
2022/10/05 08:12:32;;;;;;;5.17;3.70;;;16.20;99.90;;;;;;5077869;28;20206;-62
2022/10/05 08:15:05;;;;;;;5.43;3.73;;;16.20;99.90;;;;;;5067420;28;20242;-62
2022/10/05 08:17:48;;;;;;;6.77;4.30;;;16.20;99.90;;;;;;5075249;28;20252;-62
2022/10/05 08:20:29;;;;;;;4.13;3.70;;;16.30;99.90;;;;;;5070586;28;20200;-62
2022/10/05 08:23:07;;;;;;;4.07;3.77;;;16.30;99.90;;;;;;5062030;28;20217;-62
2022/10/05 08:25:45;;;;;;;4.13;3.77;;;16.30;99.90;;;;;;5059899;28;20189;-62
2022/10/05 08:28:23;;;;;;;4.80;3.57;;;16.40;99.90;;;;;;5071221;28;20200;-62
2022/10/05 08:31:01;;;;;;;4.27;3.87;;;16.50;99.90;;;;;;5070149;28;20276;-62
2022/10/05 08:33:35;;;;;;;4.07;3.63;;;16.50;99.90;;;;;;5065644;28;20208;-62
2022/10/05 08:36:09;;;;;;;5.93;4.13;;;16.50;99.90;;;;;;5069734;28;20259;-62
2022/10/05 08:38:40;;;;;;;7.87;4.27;;;16.50;99.90;;;;;;5069444;28;20198;-63
2022/10/05 08:41:39;;;;;;;4.03;3.73;;;16.50;99.90;;;;;;5071505;28;20201;-62
2022/10/05 08:44:33;;;;;;;3.67;3.40;;;16.60;99.90;;;;;;5064570;28;20216;-62
2022/10/05 08:47:21;;;;;;;4.03;3.60;;;16.60;99.90;;;;;;5066179;28;20200;-62
2022/10/05 08:50:07;;;;;;;3.90;3.60;;;16.60;99.90;;;;;;5061823;28;20632;-62
2022/10/05 08:52:53;;;;;;;5.73;3.20;;;16.60;99.90;;;;;;5075307;28;20216;-62
2022/10/05 08:55:40;;;;;;;8.77;3.63;;;16.60;99.90;;;;;;5073723;28;20286;-62
2022/10/05 08:58:43;;;;;;;4.30;3.30;;;16.70;99.90;;;;;;5068829;28;20201;-62
2022/10/05 09:01:20;;;;;;;3.93;3.20;;;16.70;99.90;;;;;;5075435;28;20188;-62
2022/10/05 09:04:13;;;;;;;5.03;3.40;;;16.80;99.90;;;;;;5073111;28;20353;-62
2022/10/05 09:07:09;;;;;;;7.27;2.70;;;16.80;99.90;;;;;;5079320;28;20238;-62
2022/10/05 09:10:18;;;;;;;3.13;3.00;;;16.80;99.90;;;;;;5068088;28;20240;-62
2022/10/05 09:13:17;;;;;;;2.90;2.70;;;16.90;99.90;;;;;;5075102;28;20212;-62
2022/10/05 09:16:22;;;;;;;3.50;3.20;;;17.00;99.90;;;;;;5071019;28;20196;-62
2022/10/05 09:19:28;;;;;;;4.80;3.43;;;17.00;99.90;;;;;;5028944;28;20619;-62
2022/10/05 09:22:03;;;;;;;2.90;2.70;;;17.00;99.90;;;;;;5070822;28;20648;-62
2022/10/05 09:24:54;;;;;;;4.63;2.70;;;17.10;99.90;;;;;;5076882;28;20198;-62
2022/10/05 09:27:34;;;;;;;6.40;3.17;;;17.20;99.90;;;;;;5069800;28;20221;-62
2022/10/05 09:30:26;;;;;;;4.73;2.53;;;17.30;99.90;;;;;;5076437;28;20203;-62
2022/10/05 09:33:24;;;;;;;3.37;2.83;;;17.40;99.90;;;;;;5079712;28;20215;-62
2022/10/05 09:36:30;;;;;;;3.13;2.90;;;17.50;99.90;;;;;;5076219;28;20196;-62
2022/10/05 09:39:41;;;;;;;5.53;3.10;;;17.70;99.90;;;;;;5074750;28;20193;-62
2022/10/05 09:42:36;;;;;;;4.67;2.50;;;17.80;99.90;;;;;;5009896;28;20649;-63
2022/10/05 09:45:43;;;;;;;10.40;2.90;;;17.80;99.90;;;;;;5070254;28;20206;-62
2022/10/05 09:48:56;;;;;;;3.83;2.57;;;17.70;99.90;;;;;;5083508;28;20199;-62
2022/10/05 09:52:01;;;;;;;5.73;2.80;;;17.90;99.90;;;;;;5078039;28;20223;-62
2022/10/05 09:55:12;;;;;;;2.80;2.70;;;18.00;99.90;;;;;;5073905;28;20202;-63
2022/10/05 09:58:28;;;;;;;4.27;2.77;;;18.10;99.90;;;;;;5074654;28;20203;-62
2022/10/05 10:01:26;;;;;;;2.97;2.73;;;18.10;99.90;;;;;;5070790;28;20203;-63
2022/10/05 10:04:34;;;;;;;3.63;2.80;;;18.20;99.90;;;;;;5064055;28;20205;-63
2022/10/05 10:07:36;;;;;;;2.77;2.40;;;18.30;99.90;;;;;;5064125;28;20236;-62
2022/10/05 10:10:32;;;;;;;4.57;2.67;;;18.40;99.90;;;;;;5060446;28;20223;-62
2022/10/05 10:13:21;;;;;;;2.50;2.40;;;18.60;99.90;;;;;;5070602;28;20721;-62
2022/10/05 10:16:12;;;;;;;3.17;2.53;;;18.60;99.90;;;;;;5066318;28;20192;-62
2022/10/05 10:19:11;;;;;;;4.13;2.70;;;18.50;99.90;;;;;;5069823;28;20200;-62
2022/10/05 10:22:05;;;;;;;7.60;2.40;;;18.50;99.90;;;;;;5059091;28;20275;-63
2022/10/05 10:25:08;;;;;;;3.43;2.83;;;18.50;99.90;;;;;;5062954;28;20655;-62
2022/10/05 10:27:57;;;;;;;4.13;3.07;;;18.40;99.90;;;;;;5048488;28;20209;-62
2022/10/05 10:30:57;;;;;;;3.90;2.80;;;18.50;99.90;;;;;;5066704;28;20273;-62
2022/10/05 10:33:56;;;;;;;7.73;2.80;;;18.60;99.90;;;;;;5044849;28;20294;-62
2022/10/05 10:36:46;;;;;;;3.10;2.97;;;18.80;99.90;;;;;;5060615;28;20228;-62
2022/10/05 10:39:25;;;;;;;4.87;2.50;;;18.90;99.90;;;;;;5069089;28;20220;-62
2022/10/05 10:42:11;;;;;;;3.20;2.90;;;18.80;99.90;;;;;;5067551;28;20188;-62
2022/10/05 10:45:13;;;;;;;3.37;2.90;;;18.90;99.90;;;;;;5067624;28;20531;-62
2022/10/05 10:47:51;;;;;;;3.27;2.63;;;18.90;99.90;;;;;;5075726;28;20198;-62
2022/10/05 10:51:03;;;;;;;2.57;2.40;;;18.80;99.90;;;;;;5067497;28;20199;-63
2022/10/05 10:54:03;;;;;;;4.60;2.77;;;18.80;99.90;;;;;;5038183;28;20260;-64
2022/10/05 10:56:48;;;;;;;2.53;2.13;;;19.30;99.90;;;;;;5083832;28;20208;-63
2022/10/05 10:59:53;;;;;;;2.23;2.13;;;19.90;99.90;;;;;;5070875;28;20200;-63
2022/10/05 11:02:45;;;;;;;4.37;2.40;;;19.80;99.90;;;;;;5068081;28;20898;-62
2022/10/05 11:05:38;;;;;;;4.70;2.30;;;19.50;99.90;;;;;;5063632;28;20195;-62
2022/10/05 11:08:36;;;;;;;3.47;2.40;;;19.50;99.90;;;;;;5059865;28;20200;-63
2022/10/05 11:11:31;;;;;;;8.93;2.70;;;19.20;99.90;;;;;;5047128;28;20232;-62
2022/10/05 11:14:33;;;;;;;2.67;2.10;;;19.00;99.90;;;;;;5052313;28;20298;-62
2022/10/05 11:17:43;;;;;;;2.33;2.13;;;19.10;99.90;;;;;;5069202;28;20648;-62
2022/10/05 11:20:42;;;;;;;3.37;3.03;;;19.00;99.90;;;;;;5049046;28;20303;-63
2022/10/05 11:23:39;;;;;;;3.33;2.27;;;18.90;99.90;;;;;;5066853;28;20193;-62
2022/10/05 11:26:25;;;;;;;4.57;2.30;;;19.20;99.90;;;;;;5070139;28;20196;-62
2022/10/05 11:29:16;;;;;;;2.10;2.00;;;19.20;99.90;;;;;;5068069;28;20192;-63
2022/10/05 11:32:13;;;;;;;2.70;2.10;;;19.40;99.90;;;;;;5069679;28;20196;-63
2022/10/05 11:35:17;;;;;;;2.53;1.73;;;19.80;99.90;;;;;;5068964;28;20543;-63
2022/10/05 11:38:13;;;;;;;3.03;2.10;;;20.20;99.90;;;;;;5067253;28;20230;-62
2022/10/05 11:41:13;;;;;;;2.10;2.00;;;20.20;99.90;;;;;;5064659;28;20211;-62
2022/10/05 11:44:04;;;;;;;2.73;2.40;;;20.20;99.90;;;;;;5063285;28;20208;-62
2022/10/05 11:46:43;;;;;;;5.03;2.30;;;20.30;99.90;;;;;;5075248;28;20275;-62
2022/10/05 11:49:32;;;;;;;2.90;2.30;;;19.80;99.90;;;;;;5084987;28;20287;-62
2022/10/05 11:52:08;;;;;;;4.50;2.10;;;19.60;99.90;;;;;;5100511;27;20207;-62
2022/10/05 11:55:05;;;;;;;2.70;2.07;;;19.40;99.90;;;;;;5058885;28;20208;-63
2022/10/05 11:57:48;;;;;;;5.93;2.67;;;19.30;99.90;;;;;;5050947;28;20763;-62
2022/10/05 12:00:19;;;;;;;4.17;2.30;;;19.30;99.90;;;;;;5058854;28;20214;-63
2022/10/05 12:03:31;;;;;;;5.13;2.30;;;19.40;99.90;;;;;;5060410;28;20196;-63
2022/10/05 12:06:15;;;;;;;3.43;2.00;;;19.50;99.90;;;;;;5058910;28;20227;-62
2022/10/05 12:08:55;;;;;;;2.77;2.13;;;19.50;99.90;;;;;;5062908;28;20222;-62
2022/10/05 12:11:39;;;;;;;4.37;2.13;;;19.70;99.90;;;;;;5062543;28;20211;-64
2022/10/05 12:14:24;;;;;;;4.43;2.10;;;20.00;99.90;;;;;;5061583;28;20220;-63
2022/10/05 12:17:01;;;;;;;2.10;2.00;;;20.00;99.90;;;;;;5060335;28;20208;-63
2022/10/05 12:19:36;;;;;;;3.67;1.80;;;19.70;99.90;;;;;;5060821;28;20210;-64
2022/10/05 12:22:14;;;;;;;6.20;2.30;;;19.70;99.90;;;;;;5056565;28;20184;-63
2022/10/05 12:25:01;;;;;;;2.90;2.23;;;19.50;99.90;;;;;;5105404;27;20211;-62
2022/10/05 12:27:34;;;;;;;3.83;2.37;;;19.30;99.90;;;;;;5068576;28;20592;-62
2022/10/05 12:30:13;;;;;;;2.33;2.13;;;19.30;99.90;;;;;;5063888;28;20184;-62
2022/10/05 12:32:48;;;;;;;2.20;2.10;;;19.20;99.90;;;;;;5069301;28;20224;-63
2022/10/05 12:35:24;;;;;;;3.67;2.03;;;19.00;99.90;;;;;;5065231;28;20209;-63
2022/10/05 12:38:21;;;;;;;2.50;1.90;;;18.80;99.90;;;;;;5079558;28;20220;-62
2022/10/05 12:41:04;;;;;;;3.10;2.17;;;18.70;99.90;;;;;;5076077;28;20662;-62
2022/10/05 12:43:41;;;;;;;4.40;2.03;;;18.80;99.90;;;;;;5063527;28;20192;-62
2022/10/05 12:46:24;;;;;;;2.33;1.80;;;18.70;99.90;;;;;;5070265;28;20678;-62
2022/10/05 12:49:19;;;;;;;2.53;2.20;;;18.60;99.90;;;;;;5067396;28;20200;-62
2022/10/05 12:51:55;;;;;;;4.13;2.10;;;18.50;99.90;;;;;;5062207;28;20279;-62
2022/10/05 12:54:35;;;;;;;2.47;2.27;;;18.50;99.90;;;;;;5070208;28;20214;-62
2022/10/05 12:57:12;;;;;;;2.00;1.83;;;18.50;99.90;;;;;;5066171;28;20191;-63
2022/10/05 12:59:45;;;;;;;3.67;1.97;;;18.30;99.90;;;;;;5060251;28;20325;-62
2022/10/05 13:02:23;;;;;;;2.40;2.20;;;18.30;99.90;;;;;;5058309;28;20200;-62
2022/10/05 13:05:01;;;;;;;2.57;2.20;;;18.20;99.90;;;;;;5059374;28;20188;-62
2022/10/05 13:07:49;;;;;;;3.23;2.00;;;18.20;99.90;;;;;;5056558;28;20738;-62
2022/10/05 13:10:31;;;;;;;4.20;2.10;;;18.20;99.90;;;;;;5057702;28;20220;-62
2022/10/05 13:13:16;;;;;;;3.17;1.90;;;18.20;99.90;;;;;;5058356;28;20212;-62
2022/10/05 13:15:52;;;;;;;2.57;2.30;;;18.10;99.90;;;;;;5064515;28;20650;-62
2022/10/05 13:18:33;;;;;;;2.07;1.97;;;18.00;99.90;;;;;;5067255;28;20196;-62
2022/10/05 13:21:06;;;;;;;2.10;2.00;;;18.00;99.90;;;;;;5059232;28;20196;-63
2022/10/05 13:23:42;;;;;;;3.70;2.30;;;17.90;99.90;;;;;;5061970;28;20194;-63
2022/10/05 13:26:16;;;;;;;2.37;2.20;;;17.90;99.90;;;;;;5067521;28;20198;-59
2022/10/05 13:28:50;;;;;;;2.20;2.10;;;17.90;99.90;;;;;;5060828;28;20195;-59
2022/10/05 13:31:22;;;;;;;3.03;2.47;;;17.80;99.90;;;;;;5061104;28;20203;-59
2022/10/05 13:34:03;;;;;;;3.80;2.20;;;17.70;99.90;;;;;;5061569;28;20220;-60
2022/10/05 13:36:42;;;;;;;4.13;2.67;;;17.70;99.90;;;;;;5058682;28;20204;-59
2022/10/05 13:39:21;;;;;;;23.23;10.80;;;17.70;99.90;;;;;;5061405;28;20199;-59
2022/10/05 13:41:54;;;;;;;4.80;3.13;;;17.80;99.90;;;;;;5067889;28;20191;-59
2022/10/05 13:44:29;;;;;;;2.53;2.20;;;17.80;99.90;;;;;;5061590;28;20192;-60
2022/10/05 13:47:07;;;;;;;4.40;2.00;;;17.80;99.90;;;;;;5067192;28;20206;-61
2022/10/05 13:49:44;;;;;;;2.40;2.20;;;17.90;99.90;;;;;;5062410;28;20241;-60
2022/10/05 13:52:28;;;;;;;4.13;3.63;;;18.00;99.90;;;;;;5062038;28;20196;-61
2022/10/05 13:55:01;;;;;;;2.37;2.23;;;18.00;99.90;;;;;;5068840;28;20243;-60
2022/10/05 13:57:44;;;;;;;4.90;3.63;;;18.00;99.90;;;;;;5065363;28;20200;-60
2022/10/05 14:00:16;;;;;;;5.27;2.70;;;18.00;99.90;;;;;;5061891;28;20194;-60
2022/10/05 14:02:50;;;;;;;2.93;2.20;;;18.00;99.90;;;;;;5061156;28;20184;-60
2022/10/05 14:05:22;;;;;;;2.70;2.20;;;18.00;99.90;;;;;;5060935;28;20991;-61